Time;durP1;ratioP1;P1;durP2;ratioP2;P2;SDS_P1;SDS_P2;PMS_P1;PMS_P2;Temp;Humidity;BMP_temperature;BMP_pressure;BME280_temperature;BME280_humidity;BME280_pressure;Samples;Min_cycle;Max_cycle;Signal;HPM_P1;HPM_P2
2022/10/02 00:01:48;;;;;;;;;;;13.50;99.90;;;11.59;96.19;99772.94;10536962;28;20407;-81
2022/10/02 00:06:54;;;;;;;;;;;13.60;99.90;;;11.65;95.57;99767.72;10526394;28;20270;-82
2022/10/02 00:11:58;;;;;;;;;;;13.70;99.90;;;11.70;94.87;99775.97;10525992;28;19935;-81
2022/10/02 00:17:01;;;;;;;;;;;13.70;99.90;;;11.76;93.99;99769.06;10535812;28;19934;-82
2022/10/02 00:22:13;;;;;;;;;;;13.80;99.90;;;11.80;93.24;99776.47;10527262;28;19978;-81
2022/10/02 00:27:44;;;;;;;;;;;13.80;99.90;;;11.82;92.98;99773.69;10526221;28;19935;-81
2022/10/02 00:33:02;;;;;;;;;;;13.80;99.90;;;11.83;92.51;99772.69;10537850;28;19935;-81
2022/10/02 00:38:04;;;;;;;;;;;13.80;99.90;;;11.85;92.12;99791.94;10542485;28;20026;-81
2022/10/02 00:43:09;;;;;;;;;;;13.80;99.90;;;11.83;92.21;99809.94;10530486;28;19936;-81
2022/10/02 00:48:21;;;;;;;;;;;13.80;99.90;;;11.82;92.16;99826.94;10538903;28;20005;-81
2022/10/02 00:53:43;;;;;;;;;;;13.80;99.90;;;11.82;92.30;99836.75;10541691;28;19966;-81
2022/10/02 00:59:15;;;;;;;;;;;13.80;99.90;;;11.80;92.51;99834.22;10521897;28;20307;-81
2022/10/02 01:04:39;;;;;;;;;;;13.80;99.90;;;11.79;92.10;99848.56;10511797;28;19929;-81
2022/10/02 01:09:41;;;;;;;;;;;13.80;99.90;;;11.83;92.12;99838.41;10528337;28;19932;-81
2022/10/02 01:14:44;;;;;;;;;;;13.90;99.90;;;11.81;92.18;99849.22;10513842;28;19935;-81
2022/10/02 01:19:47;;;;;;;;;;;13.90;99.90;;;11.78;92.76;99854.91;10537035;28;19982;-81
2022/10/02 01:24:58;;;;;;;;;;;13.90;99.90;;;11.73;93.23;99868.75;10536245;28;20478;-81
2022/10/02 01:30:14;;;;;;;;;;;13.80;99.90;;;11.67;93.58;99877.47;10518489;28;20423;-81
2022/10/02 01:35:18;;;;;;;;;;;13.70;99.90;;;11.67;94.25;99884.63;10516840;28;20011;-81
2022/10/02 01:40:30;;;;;;;;;;;13.80;99.90;;;11.62;94.95;99887.00;10508617;28;20019;-81
2022/10/02 01:45:53;;;;;;;;;;;13.70;99.90;;;11.55;95.77;99894.88;10521862;28;19929;-81
2022/10/02 01:51:14;;;;;;;;;;;13.70;99.90;;;11.45;96.69;99894.31;10526217;28;19936;-81
2022/10/02 01:56:34;;;;;;;;;;;13.60;99.90;;;11.31;97.16;99911.06;10516140;28;19929;-81
2022/10/02 02:01:49;;;;;;;;;;;13.40;99.90;;;11.16;97.89;99900.41;10519755;28;20023;-81
2022/10/02 02:07:24;;;;;;;;;;;13.30;99.90;;;11.08;98.69;99908.44;10531427;28;19978;-81
2022/10/02 02:12:33;;;;;;;;;;;13.20;99.90;;;11.03;99.19;99916.94;10535832;28;19928;-81
2022/10/02 02:17:57;;;;;;;;;;;13.20;99.90;;;11.05;99.85;99917.59;10524086;28;20015;-81
2022/10/02 02:23:09;;;;;;;;;;;13.10;99.90;;;11.08;100.00;99924.38;10536877;28;19928;-82
2022/10/02 02:28:14;;;;;;;;;;;13.10;99.90;;;11.08;100.00;99935.03;10536970;28;19932;-81
2022/10/02 02:33:31;;;;;;;;;;;13.10;99.90;;;11.04;100.00;99933.75;10536689;28;20367;-81
2022/10/02 02:38:49;;;;;;;;;;;13.10;99.90;;;10.95;100.00;99941.75;10542282;28;19928;-81
2022/10/02 02:44:00;;;;;;;;;;;13.10;99.90;;;10.90;100.00;99948.59;10541933;28;20289;-81
2022/10/02 02:49:08;;;;;;;;;;;13.00;99.90;;;10.96;100.00;99951.38;10547248;28;19935;-81
2022/10/02 02:54:22;;;;;;;;;;;13.00;99.90;;;11.07;100.00;99965.28;10502279;28;19935;-81
2022/10/02 02:59:26;;;;;;;;;;;13.10;99.90;;;11.19;100.00;99970.00;10532538;28;19958;-81
2022/10/02 03:04:29;;;;;;;;;;;13.20;99.90;;;11.29;100.00;99974.28;10519649;28;19935;-81
2022/10/02 03:09:32;;;;;;;;;;;13.30;99.90;;;11.36;100.00;99968.06;10539204;28;20350;-81
2022/10/02 03:14:51;;;;;;;;;;;13.40;99.90;;;11.44;100.00;99973.31;10529630;28;19935;-81
2022/10/02 03:19:54;;;;;;;;;;;13.50;99.90;;;11.48;100.00;99985.25;10544771;28;19932;-81
2022/10/02 03:25:09;;;;;;;;;;;13.50;99.90;;;11.52;99.97;99991.88;10538355;28;19935;-81
2022/10/02 03:30:13;;;;;;;;;;;13.60;99.90;;;11.53;99.74;99993.53;10508100;28;19928;-81
2022/10/02 03:35:16;;;;;;;;;;;13.60;99.90;;;11.53;99.44;100003.34;10526260;28;20039;-81
2022/10/02 03:40:23;;;;;;;;;;;13.60;99.90;;;11.52;99.31;100015.84;10542635;28;20483;-81
2022/10/02 03:45:27;;;;;;;;;;;13.60;99.90;;;11.50;99.32;100015.16;10525693;28;20043;-81
2022/10/02 03:50:49;;;;;;;;;;;13.60;99.90;;;11.50;98.92;100027.66;10536312;28;19932;-82
2022/10/02 03:56:31;;;;;;;;;;;13.50;99.90;;;11.49;98.92;100026.81;10539563;28;19928;-82
2022/10/02 04:01:41;;;;;;;;;;;13.50;99.90;;;11.51;98.46;100032.81;10525805;28;20298;-82
2022/10/02 04:06:55;;;;;;;;;;;13.50;99.90;;;11.55;98.17;100038.59;10537642;28;20319;-81
2022/10/02 04:12:02;;;;;;;;;;;13.50;99.90;;;11.54;97.14;100036.94;10541445;28;19936;-82
2022/10/02 04:17:42;;;;;;;;;;;13.50;99.90;;;11.50;96.67;100033.78;10539559;28;19928;-81
2022/10/02 04:22:51;;;;;;;;;;;13.50;99.90;;;11.46;96.45;100045.81;10517427;28;19929;-82
2022/10/02 04:28:05;;;;;;;;;;;13.40;99.90;;;11.41;96.13;100053.50;10524908;28;19929;-81
2022/10/02 04:33:13;;;;;;;;;;;13.30;99.90;;;11.38;96.05;100058.34;10539361;28;19928;-81
2022/10/02 04:38:42;;;;;;;;;;;13.30;99.90;;;11.31;96.28;100079.50;10542630;28;20277;-81
2022/10/02 04:44:12;;;;;;;;;;;13.30;99.90;;;11.28;96.37;100093.16;10522870;28;20307;-82
2022/10/02 04:49:36;;;;;;;;;;;13.20;99.90;;;11.26;96.39;100097.81;10533515;28;19935;-81
2022/10/02 04:55:15;;;;;;;;;;;13.20;99.90;;;11.23;96.41;100087.53;10539738;28;19928;-82
2022/10/02 05:00:23;;;;;;;;;;;13.20;99.90;;;11.18;96.58;100109.31;10539075;28;19929;-81
2022/10/02 05:05:50;;;;;;;;;;;13.10;99.90;;;11.16;96.73;100116.66;10530197;28;19935;-81
2022/10/02 05:11:11;;;;;;;;;;;13.10;99.90;;;11.15;96.83;100107.00;10539167;28;19951;-81
2022/10/02 05:16:17;;;;;;;;;;;13.10;99.90;;;11.16;96.88;100121.16;10525894;28;19973;-81
2022/10/02 05:21:38;;;;;;;;;;;13.10;99.90;;;11.19;96.58;100126.94;10543454;28;20021;-81
2022/10/02 05:26:44;;;;;;;;;;;13.10;99.90;;;11.22;96.63;100131.94;10542292;28;19968;-81
2022/10/02 05:31:52;;;;;;;;;;;13.20;99.90;;;11.25;96.34;100120.09;10531758;28;19928;-81
2022/10/02 05:37:16;;;;;;;;;;;13.20;99.90;;;11.27;96.38;100120.75;10538548;28;19935;-81
2022/10/02 05:43:02;;;;;;;;;;;13.30;99.90;;;11.29;96.30;100125.91;10521021;28;19928;-81
2022/10/02 05:48:42;;;;;;;;;;;13.20;99.90;;;11.38;95.73;100128.34;10535716;28;19998;-81
2022/10/02 05:53:56;;;;;;;;;;;13.30;99.90;;;11.44;95.27;100122.31;10479269;28;20027;-81
2022/10/02 05:59:08;;;;;;;;;;;13.40;99.90;;;11.49;94.83;100132.44;10528378;28;19928;-81
2022/10/02 06:04:36;;;;;;;;;;;13.50;99.90;;;11.56;94.12;100148.53;10516317;28;19928;-81
2022/10/02 06:09:47;;;;;;;;;;;13.50;99.90;;;11.61;93.72;100157.66;10540221;28;19935;-81
2022/10/02 06:14:59;;;;;;;;;;;13.60;99.90;;;11.66;93.42;100159.78;10531835;28;19937;-81
2022/10/02 06:20:16;;;;;;;;;;;13.60;99.90;;;11.72;93.19;100167.06;10521761;28;20292;-80
2022/10/02 06:25:28;;;;;;;;;;;13.70;99.90;;;11.79;92.60;100190.16;10527659;28;19982;-80
2022/10/02 06:30:34;;;;;;;;;;;13.70;99.90;;;11.87;91.98;100175.97;10543377;28;19935;-80
2022/10/02 06:36:15;;;;;;;;;;;13.80;99.90;;;11.95;92.00;100189.25;10545013;28;19932;-80
2022/10/02 06:41:33;;;;;;;;;;;13.90;99.90;;;12.07;92.20;100194.16;10544930;28;20015;-80
2022/10/02 06:47:11;;;;;;;;;;;14.00;99.90;;;12.16;91.56;100206.41;10540578;28;19936;-81
2022/10/02 06:52:28;;;;;;;;;;;14.10;99.90;;;12.26;90.44;100225.66;10512426;28;19928;-81
2022/10/02 06:58:00;;;;;;;;;;;14.20;99.90;;;12.35;89.86;100237.91;10537338;28;20175;-81
2022/10/02 07:03:02;;;;;;;;;;;14.30;99.90;;;12.43;89.34;100248.50;10508140;28;19935;-81
2022/10/02 07:08:36;;;;;;;;;;;14.40;99.90;;;12.52;88.08;100251.94;10512973;28;19932;-81
2022/10/02 07:14:18;;;;;;;;;;;14.50;99.90;;;12.58;87.05;100245.88;10543868;28;19951;-81
2022/10/02 07:19:56;;;;;;;;;;;14.50;99.90;;;12.65;86.69;100240.66;10509217;28;19935;-80
2022/10/02 07:25:26;;;;;;;;;;;14.60;99.90;;;12.74;86.44;100250.25;10522653;28;19929;-80
2022/10/02 07:30:39;;;;;;;;;;;14.70;99.90;;;12.85;86.38;100261.31;10540355;28;19929;-81
2022/10/02 07:36:23;;;;;;;;;;;14.80;99.90;;;12.94;85.04;100274.56;10527453;28;19928;-81
2022/10/02 07:41:49;;;;;;;;;;;14.90;99.90;;;13.00;84.65;100280.00;10430155;28;19928;-81
2022/10/02 07:46:58;;;;;;;;;;;14.90;99.90;;;13.10;84.71;100272.56;10505380;28;20390;-81
2022/10/02 07:52:09;;;;;;;;;;;15.10;99.90;;;13.20;84.69;100274.97;10526415;28;19928;-81
2022/10/02 07:57:31;;;;;;;;;;;15.20;99.90;;;13.36;84.81;100280.16;10535744;28;19928;-80
2022/10/02 08:02:56;;;;;;;;;;;15.30;99.90;;;13.52;84.41;100268.47;10525962;28;20315;-81
2022/10/02 08:08:22;;;;;;;;;;;15.50;99.90;;;13.62;83.31;100258.34;10542799;28;19928;-81
2022/10/02 08:13:35;;;;;;;;;;;15.60;99.90;;;13.72;82.75;100281.25;10508428;28;19928;-81
2022/10/02 08:18:45;;;;;;;;;;;15.70;99.90;;;13.82;82.84;100279.94;10504236;28;20462;-81
2022/10/02 08:24:00;;;;;;;;;;;15.80;99.90;;;13.88;81.42;100276.53;10520206;28;20311;-81
2022/10/02 08:29:08;;;;;;;;;;;15.90;99.90;;;13.90;80.71;100284.34;10544262;28;19980;-81
2022/10/02 08:34:22;;;;;;;;;;;15.90;99.90;;;13.89;80.56;100285.34;10540819;28;20362;-81
2022/10/02 08:39:47;;;;;;;;;;;15.90;99.90;;;13.82;79.20;100287.97;10512093;28;19932;-81
2022/10/02 08:45:34;;;;;;;;;;;15.80;99.90;;;13.79;78.06;100290.16;10545143;28;19978;-81
2022/10/02 08:50:55;;;;;;;;;;;15.80;99.90;;;13.77;78.08;100284.19;10519682;28;19967;-82
2022/10/02 08:56:57;;;;;;;;;;;15.80;99.90;;;14.00;78.66;100284.88;10544630;28;19932;-83
2022/10/02 09:02:28;;;;;;;;;;;15.90;99.90;;;14.33;77.30;100284.41;10496153;28;19959;-82
2022/10/02 09:07:55;;;;;;;;;;;16.20;99.90;;;14.53;77.70;100279.31;10544110;28;20007;-81
2022/10/02 09:13:53;;;;;;;;;;;16.40;99.90;;;14.69;76.04;100285.22;10542830;28;19928;-81
2022/10/02 09:19:08;;;;;;;;;;;16.60;99.90;;;14.79;74.20;100276.84;10419381;28;19932;-82
2022/10/02 09:24:30;;;;;;;;;;;16.70;99.90;;;14.83;73.53;100285.31;10507279;28;19928;-82
2022/10/02 09:30:00;;;;;;;;;;;16.80;99.90;;;14.95;74.79;100275.75;10517483;28;19966;-82
2022/10/02 09:35:19;;;;;;;;;;;17.00;99.90;;;15.14;73.39;100264.34;10543041;28;19935;-83
2022/10/02 09:40:31;;;;;;;;;;;17.30;99.90;;;15.34;72.14;100256.44;10543437;28;19998;-82
2022/10/02 09:45:53;;;;;;;;;;;17.50;99.50;;;15.38;69.76;100271.09;10541908;28;19928;-82
2022/10/02 09:51:14;;;;;;;;;;;17.50;98.40;;;15.29;69.15;100266.06;10542530;28;19928;-83
2022/10/02 09:56:40;;;;;;;;;;;17.40;99.00;;;15.33;68.92;100264.66;10539835;28;19964;-82
2022/10/02 10:01:55;;;;;;;;;;;17.30;98.00;;;15.45;68.84;100271.94;10516172;28;20380;-82
2022/10/02 10:07:21;;;;;;;;;;;17.40;98.40;;;15.33;69.00;100270.84;10537155;28;19928;-83
2022/10/02 10:12:40;;;;;;;;;;;17.40;98.50;;;15.34;69.41;100269.00;10543224;28;20307;-83
2022/10/02 10:17:42;;;;;;;;;;;17.30;98.70;;;15.36;67.86;100266.97;10538693;28;19932;-82
2022/10/02 10:22:45;;;;;;;;;;;17.40;97.90;;;15.43;67.30;100265.97;10542770;28;19971;-84
2022/10/02 10:28:09;;;;;;;;;;;17.40;97.40;;;15.56;67.03;100251.00;10541846;28;19928;-83
2022/10/02 10:33:15;;;;;;;;;;;17.60;96.30;;;15.73;67.31;100257.69;10536537;28;19964;-83
2022/10/02 10:38:42;;;;;;;;;;;17.70;97.30;;;15.94;65.84;100246.84;10541491;28;20399;-83
2022/10/02 10:44:16;;;;;;;;;;;17.90;96.60;;;15.84;65.47;100242.91;10539815;28;20450;-83
2022/10/02 10:49:38;;;;;;;;;;;17.80;95.70;;;15.91;65.91;100243.75;10510567;28;20018;-82
2022/10/02 10:55:31;;;;;;;;;;;17.90;95.90;;;15.84;65.54;100248.25;10539423;28;19936;-83
2022/10/02 11:01:03;;;;;;;;;;;17.90;95.90;;;15.92;65.84;100245.41;10543415;28;19928;-83
2022/10/02 11:06:16;;;;;;;;;;;18.00;96.00;;;15.88;65.19;100239.59;10544478;28;20407;-83
2022/10/02 11:11:26;;;;;;;;;;;17.90;95.80;;;15.85;65.55;100244.56;10506097;28;19932;-82
2022/10/02 11:16:36;;;;;;;;;;;18.00;96.00;;;15.77;65.12;100248.22;10505668;28;19929;-83
2022/10/02 11:21:45;;;;;;;;;;;17.80;95.30;;;15.66;65.07;100246.13;10520978;28;20423;-83
2022/10/02 11:27:38;;;;;;;;;;;17.70;95.10;;;15.52;66.13;100235.31;10539124;28;19932;-83
2022/10/02 11:32:46;;;;;;;;;;;17.60;96.30;;;15.47;66.47;100227.06;10440689;28;20076;-83
2022/10/02 11:38:05;;;;;;;;;;;17.50;95.20;;;15.39;66.63;100235.25;10547539;28;20292;-83
2022/10/02 11:43:58;;;;;;;;;;;17.40;96.40;;;15.32;67.46;100238.94;10545887;28;19929;-84
2022/10/02 11:49:24;;;;;;;;;;;17.30;96.40;;;15.38;66.02;100228.25;10473461;28;19935;-83
2022/10/02 11:54:43;;;;;;;;;;;17.40;95.80;;;15.42;65.80;100207.25;10546746;28;19928;-83
2022/10/02 12:00:04;;;;;;;;;;;17.40;95.60;;;15.88;67.14;100198.59;10537776;28;19935;-83
2022/10/02 12:05:20;;;;;;;;;;;17.80;96.50;;;16.14;65.18;100209.38;10487739;28;19936;-83
2022/10/02 12:11:00;;;;;;;;;;;18.20;95.70;;;16.36;64.23;100209.19;10504153;28;20484;-83
2022/10/02 12:16:16;;;;;;;;;;;18.30;94.90;;;16.38;63.84;100191.03;10516908;28;20051;-85
2022/10/02 12:27:08;;;;;;;;;;;18.20;95.00;;;16.38;63.14;100186.50;10534406;28;19936;-85
2022/10/02 12:32:35;;;;;;;;;;;18.30;94.40;;;16.31;62.38;100170.41;10539909;28;19939;-84
2022/10/02 12:37:58;;;;;;;;;;;18.20;93.80;;;16.28;63.95;100173.50;10538630;28;19928;-84
2022/10/02 12:43:09;;;;;;;;;;;18.20;95.00;;;16.31;67.39;100170.41;10538297;28;19928;-84
2022/10/02 12:48:35;;;;;;;;;;;18.20;97.20;;;16.27;66.59;100174.53;10539041;28;20018;-84
2022/10/02 12:54:06;;;;;;;;;;;18.20;96.30;;;16.24;67.46;100179.47;10539550;28;19929;-84
2022/10/02 12:59:30;;;;;;;;;;;18.10;96.70;;;16.09;67.22;100185.03;10504015;28;19984;-84
2022/10/02 13:04:58;;;;;;;;;;;18.00;96.80;;;15.95;68.85;100173.47;10547073;28;19928;-83
2022/10/02 13:10:15;;;;;;;;;;;17.90;97.70;;;15.87;69.65;100167.47;10532012;28;19934;-84
2022/10/02 13:15:34;;;;;;;;;;;17.80;98.30;;;15.86;71.45;100155.09;10513641;28;20346;-83
2022/10/02 13:20:43;;;;;;;;;;;17.80;99.20;;;15.91;71.58;100153.47;10510828;28;19971;-84
2022/10/02 13:26:18;;;;;;;;;;;17.80;99.10;;;15.85;72.06;100137.38;10513723;28;19983;-84
2022/10/02 13:31:58;;;;;;;;;;;17.80;99.20;;;15.70;72.06;100135.69;10538452;28;19936;-84
2022/10/02 13:37:24;;;;;;;;;;;17.70;99.10;;;15.51;72.83;100145.28;10543138;28;19963;-83
2022/10/02 13:42:30;;;;;;;;;;;17.50;99.50;;;15.46;74.20;100138.88;10538939;28;20387;-83
2022/10/02 13:47:42;;;;;;;;;;;17.40;99.90;;;15.36;74.89;100120.53;10527329;28;19976;-83
2022/10/02 13:52:57;;;;;;;;;;;17.30;99.90;;;15.25;75.00;100123.78;10529230;28;19968;-84
2022/10/02 13:58:44;;;;;;;;;;;17.20;99.90;;;15.20;76.40;100127.03;10519795;28;19936;-83
2022/10/02 14:04:09;;;;;;;;;;;17.20;99.90;;;15.13;76.57;100112.81;10528030;28;19978;-83
2022/10/02 14:10:01;;;;;;;;;;;17.10;99.90;;;15.11;76.44;100116.69;10537883;28;19929;-83
2022/10/02 14:15:17;;;;;;;;;;;17.00;99.90;;;15.05;77.38;100134.38;10528822;28;19950;-83
2022/10/02 14:20:59;;;;;;;;;;;17.00;99.90;;;14.97;78.14;100123.84;10539548;28;19928;-83
2022/10/02 14:26:12;;;;;;;;;;;16.90;99.90;;;14.91;79.25;100120.13;10463174;28;19933;-83
2022/10/02 14:31:32;;;;;;;;;;;16.90;99.90;;;14.82;79.02;100109.78;10515545;28;20022;-85
2022/10/02 14:37:08;;;;;;;;;;;16.80;99.90;;;14.74;79.29;100108.06;10537815;28;19982;-83
2022/10/02 14:42:42;;;;;;;;;;;16.70;99.90;;;14.68;80.05;100106.19;10538303;28;19928;-83
2022/10/02 14:47:48;;;;;;;;;;;16.60;99.90;;;14.60;80.68;100101.84;10542018;28;19928;-84
2022/10/02 14:53:24;;;;;;;;;;;16.50;99.90;;;14.52;80.27;100072.59;10548823;28;20863;-84
2022/10/02 14:58:33;;;;;;;;;;;16.40;99.90;;;14.45;79.52;100060.97;10543600;28;20395;-83
2022/10/02 15:03:47;;;;;;;;;;;16.30;99.90;;;14.36;79.96;100067.50;10534506;28;19928;-85
2022/10/02 15:15:06;;;;;;;;;;;16.20;99.90;;;14.22;80.84;100066.59;10477866;28;20023;-84
2022/10/02 15:20:30;;;;;;;;;;;16.10;99.90;;;14.16;81.26;100067.38;10472591;28;20042;-82
2022/10/02 15:26:04;;;;;;;;;;;16.00;99.90;;;14.09;81.86;100051.28;10474986;28;19935;-83
2022/10/02 15:31:28;;;;;;;;;;;16.00;99.90;;;14.00;82.59;100039.09;10491306;28;19929;-84
2022/10/02 15:36:35;;;;;;;;;;;15.90;99.90;;;13.91;82.72;100045.56;10504031;28;20447;-84
2022/10/02 15:41:42;;;;;;;;;;;15.80;99.90;;;13.81;83.49;100031.75;10466688;28;19975;-84
2022/10/02 15:47:22;;;;;;;;;;;15.70;99.90;;;13.76;84.28;100034.16;10444508;28;19929;-84
2022/10/02 15:52:32;;;;;;;;;;;15.70;99.90;;;13.68;85.23;100042.31;10496141;28;19982;-84
2022/10/02 15:58:02;;;;;;;;;;;15.50;99.90;;;13.59;85.37;100049.63;10531959;28;19928;-84
2022/10/02 16:03:17;;;;;;;;;;;15.50;99.90;;;13.52;86.33;100049.56;10525278;28;19932;-84
2022/10/02 16:08:30;;;;;;;;;;;15.40;99.90;;;13.46;86.78;100050.31;10541396;28;19935;-84
2022/10/02 16:13:58;;;;;;;;;;;15.30;99.90;;;13.41;87.14;100041.22;10544925;28;19928;-84
2022/10/02 16:19:28;;;;;;;;;;;15.30;99.90;;;13.33;87.89;100031.50;10543570;28;19932;-84
2022/10/02 16:24:49;;;;;;;;;;;15.20;99.90;;;13.25;88.35;100015.59;10540831;28;19928;-84
2022/10/02 16:30:12;;;;;;;;;;;15.10;99.90;;;13.18;89.01;100036.03;10545301;28;19929;-84
2022/10/02 16:35:23;;;;;;;;;;;15.00;99.90;;;13.11;89.52;100036.78;10540826;28;20023;-84
2022/10/02 16:40:49;;;;;;;;;;;15.00;99.90;;;13.08;89.82;100037.16;10532096;28;19932;-84
2022/10/02 16:46:23;;;;;;;;;;;14.90;99.90;;;13.04;90.35;100025.22;10541559;28;19974;-84
2022/10/02 16:51:39;;;;;;;;;;;14.90;99.90;;;13.01;90.55;100024.75;10543080;28;19928;-84
2022/10/02 16:56:49;;;;;;;;;;;14.90;99.90;;;12.98;90.88;100023.28;10542094;28;20354;-84
2022/10/02 17:02:23;;;;;;;;;;;14.80;99.90;;;12.94;91.22;100018.50;10541128;28;19982;-84
2022/10/02 17:07:49;;;;;;;;;;;14.80;99.90;;;12.91;91.46;100019.72;10513152;28;20307;-83
2022/10/02 17:13:12;;;;;;;;;;;14.80;99.90;;;12.88;91.66;100014.75;10540285;28;19994;-84
2022/10/02 17:18:38;;;;;;;;;;;14.80;99.90;;;12.86;91.82;100016.78;10533632;28;19928;-84
2022/10/02 17:23:44;;;;;;;;;;;14.70;99.90;;;12.85;92.02;100009.81;10543704;28;19985;-84
2022/10/02 17:29:13;;;;;;;;;;;14.70;99.90;;;12.84;92.37;100000.97;10537609;28;20447;-84
2022/10/02 17:34:24;;;;;;;;;;;14.70;99.90;;;12.86;92.39;99995.47;10532814;28;19955;-84
2022/10/02 17:40:01;;;;;;;;;;;14.70;99.90;;;12.86;92.38;100003.44;10549640;28;19928;-84
2022/10/02 17:45:34;;;;;;;;;;;14.80;99.90;;;12.86;92.08;100011.47;10535727;28;19929;-85
2022/10/02 17:50:44;;;;;;;;;;;14.80;99.90;;;12.87;92.49;100013.09;10533410;28;19935;-84
2022/10/02 17:56:26;;;;;;;;;;;14.80;99.90;;;12.85;92.61;100015.97;10530382;28;19929;-84
2022/10/02 18:01:29;;;;;;;;;;;14.70;99.90;;;12.83;92.64;100007.34;10532323;28;20470;-84
2022/10/02 18:06:46;;;;;;;;;;;14.70;99.90;;;12.82;92.93;100015.50;10523122;28;19929;-84
2022/10/02 18:12:17;;;;;;;;;;;14.70;99.90;;;12.82;92.93;100015.50;10537658;28;20472;-83
2022/10/02 18:17:57;;;;;;;;;;;14.70;99.90;;;12.82;92.70;100028.84;10540930;28;19928;-84
2022/10/02 18:23:14;;;;;;;;;;;14.70;99.90;;;12.85;92.43;100020.47;10524617;28;19935;-84
2022/10/02 18:28:54;;;;;;;;;;;14.70;99.90;;;12.85;92.42;100015.97;10511933;28;19956;-84
2022/10/02 18:34:05;;;;;;;;;;;14.70;99.90;;;12.85;92.00;100028.47;10527685;28;19935;-83
2022/10/02 18:39:37;;;;;;;;;;;14.70;99.90;;;12.83;92.03;100033.16;10537637;28;19951;-84
2022/10/02 18:44:57;;;;;;;;;;;14.70;99.90;;;12.83;92.41;100027.81;10524187;28;19928;-84
2022/10/02 18:50:28;;;;;;;;;;;14.70;99.90;;;12.84;92.31;100040.16;10522460;28;19928;-84
2022/10/02 18:55:49;;;;;;;;;;;14.70;99.90;;;12.85;92.40;100025.81;10529209;28;19928;-84
2022/10/02 19:01:03;;;;;;;;;;;14.80;99.90;;;12.85;92.00;100020.47;10526225;28;19928;-83
2022/10/02 19:06:23;;;;;;;;;;;14.80;99.90;;;12.84;92.25;100027.66;10543913;28;20023;-83
2022/10/02 19:11:28;;;;;;;;;;;14.80;99.90;;;12.83;92.16;100044.66;10536779;28;19928;-84
2022/10/02 19:16:31;;;;;;;;;;;14.80;99.90;;;12.82;92.12;100028.84;10518950;28;19964;-84
2022/10/02 19:21:35;;;;;;;;;;;14.70;99.90;;;12.81;92.16;100036.00;10530011;28;20418;-84
2022/10/02 19:26:44;;;;;;;;;;;14.70;99.90;;;12.78;91.95;100014.25;10533549;28;20219;-85
2022/10/02 19:31:49;;;;;;;;;;;14.70;99.90;;;12.79;91.98;100013.22;10543583;28;19936;-84
2022/10/02 19:36:55;;;;;;;;;;;14.70;99.90;;;12.79;91.98;99994.56;10528566;28;20019;-83
2022/10/02 19:42:02;;;;;;;;;;;14.70;99.90;;;12.79;91.57;99991.88;10541416;28;19928;-84
2022/10/02 19:47:21;;;;;;;;;;;14.70;99.90;;;12.78;91.61;99987.56;10520596;28;19929;-84
2022/10/02 19:52:42;;;;;;;;;;;14.70;99.90;;;12.77;91.32;99986.72;10517546;28;19950;-83
2022/10/02 19:57:46;;;;;;;;;;;14.70;99.90;;;12.75;91.19;99996.75;10522311;28;20380;-84
2022/10/02 20:02:57;;;;;;;;;;;14.60;99.90;;;12.75;91.30;99977.28;10516325;28;19928;-83
2022/10/02 20:08:05;;;;;;;;;;;14.60;99.90;;;12.72;90.92;99972.31;10521478;28;20003;-84
2022/10/02 20:13:27;;;;;;;;;;;14.60;99.90;;;12.68;91.07;99974.53;10521810;28;19928;-83
2022/10/02 20:18:29;;;;;;;;;;;14.60;99.90;;;12.66;90.89;99970.41;10540741;28;19978;-83
2022/10/02 20:23:34;;;;;;;;;;;14.50;99.90;;;12.65;90.40;99969.56;10536759;28;19959;-83
2022/10/02 20:28:45;;;;;;;;;;;14.50;99.90;;;12.66;90.65;99962.41;10522074;28;19928;-84
2022/10/02 20:33:53;;;;;;;;;;;14.50;99.90;;;12.69;90.39;99975.34;10493326;28;1150843;-83
2022/10/02 20:39:09;;;;;;;;;;;14.50;99.90;;;12.72;90.03;99969.66;10517932;28;19975;-83
2022/10/02 20:44:14;;;;;;;;;;;14.60;99.90;;;12.73;89.79;99944.66;10520290;28;20323;-83
2022/10/02 20:49:51;;;;;;;;;;;14.60;99.90;;;12.76;89.58;99952.25;10509807;28;20427;-83
2022/10/02 20:54:57;;;;;;;;;;;14.60;99.90;;;12.77;89.67;99944.06;10489109;28;20023;-84
2022/10/02 21:00:15;;;;;;;;;;;14.60;99.90;;;12.79;89.69;99943.91;10539161;28;19963;-83
2022/10/02 21:05:37;;;;;;;;;;;14.60;99.90;;;12.78;89.69;99968.91;10525348;28;19935;-84
2022/10/02 21:10:44;;;;;;;;;;;14.60;99.90;;;12.77;89.92;99983.22;10540009;28;19928;-84
2022/10/02 21:16:14;;;;;;;;;;;14.60;99.90;;;12.75;90.24;99961.28;10535871;28;19928;-83
2022/10/02 21:21:28;;;;;;;;;;;14.60;99.90;;;12.70;90.27;99963.66;10531604;28;19929;-83
2022/10/02 21:26:54;;;;;;;;;;;14.60;99.90;;;12.65;91.00;99950.06;10520534;28;19936;-83
2022/10/02 21:32:28;;;;;;;;;;;14.50;99.90;;;12.61;91.20;99940.81;10537365;28;19928;-83
2022/10/02 21:37:52;;;;;;;;;;;14.40;99.90;;;12.55;91.61;99945.88;10534368;28;19970;-83
2022/10/02 21:43:18;;;;;;;;;;;14.40;99.90;;;12.52;91.68;99940.91;10521963;28;19928;-83
2022/10/02 21:48:36;;;;;;;;;;;14.30;99.90;;;12.51;91.67;99952.59;10524550;28;20414;-83
2022/10/02 21:53:57;;;;;;;;;;;14.30;99.90;;;12.50;91.72;99952.78;10540192;28;20642;-83
2022/10/02 21:59:06;;;;;;;;;;;14.30;99.90;;;12.48;91.70;99955.63;10520183;28;20408;-83
2022/10/02 22:04:17;;;;;;;;;;;14.30;99.90;;;12.45;91.58;99950.66;10532813;28;19932;-84
2022/10/02 22:09:52;;;;;;;;;;;14.30;99.90;;;12.44;92.10;99964.19;10539615;28;19928;-83
2022/10/02 22:15:15;;;;;;;;;;;14.30;99.90;;;12.39;92.21;99954.06;10526649;28;20017;-84
2022/10/02 22:20:27;;;;;;;;;;;14.20;99.90;;;12.39;92.84;99970.06;10540988;28;19978;-83
2022/10/02 22:25:48;;;;;;;;;;;14.20;99.90;;;12.38;93.01;99981.75;10532327;28;19928;-84
2022/10/02 22:30:54;;;;;;;;;;;14.20;99.90;;;12.36;93.10;99970.44;10532029;28;20315;-84
2022/10/02 22:36:17;;;;;;;;;;;14.20;99.90;;;12.35;93.22;99976.75;10520165;28;19928;-84
2022/10/02 22:41:32;;;;;;;;;;;14.20;99.90;;;12.34;93.34;99969.78;10536224;28;20017;-84
2022/10/02 22:46:59;;;;;;;;;;;14.10;99.90;;;12.28;93.68;99958.03;10519871;28;20288;-84
2022/10/02 22:52:21;;;;;;;;;;;14.10;99.90;;;12.25;93.83;99952.25;10540305;28;19932;-83
2022/10/02 22:57:28;;;;;;;;;;;14.10;99.90;;;12.22;94.18;99952.59;10541958;28;19935;-84
2022/10/02 23:02:44;;;;;;;;;;;14.10;99.90;;;12.21;94.09;99957.13;10529515;28;19928;-83
2022/10/02 23:07:58;;;;;;;;;;;14.00;99.90;;;12.20;93.98;99951.97;10526039;28;19935;-84
2022/10/02 23:13:08;;;;;;;;;;;14.00;99.90;;;12.17;94.22;99949.66;10541869;28;20019;-84
2022/10/02 23:18:40;;;;;;;;;;;14.00;99.90;;;12.16;93.96;99948.03;10544837;28;19928;-84
2022/10/02 23:23:53;;;;;;;;;;;13.90;99.90;;;12.14;94.03;99942.06;10530168;28;20261;-84
2022/10/02 23:29:17;;;;;;;;;;;14.00;99.90;;;12.09;93.63;99936.44;10539348;28;19929;-84
2022/10/02 23:34:35;;;;;;;;;;;13.90;99.90;;;12.07;93.66;99941.16;10524941;28;19960;-83
2022/10/02 23:39:50;;;;;;;;;;;13.90;99.90;;;12.03;93.60;99949.50;10547401;28;19932;-84
2022/10/02 23:45:07;;;;;;;;;;;13.90;99.90;;;12.00;93.26;99944.53;10542371;28;19928;-83
2022/10/02 23:50:51;;;;;;;;;;;13.80;99.90;;;12.00;93.18;99954.38;10542739;28;19935;-83
2022/10/02 23:56:15;;;;;;;;;;;13.80;99.90;;;11.99;92.86;99953.53;10506388;28;19935;-83
